Arcturus, Minnesota
Current Conditions -  °F | °C
As of 12:15 AM on Thursday 29 Jan 2015 (Local Time) from KGPZ Reporting Station
Overcast Overcast  
Wind Chill: -1°   Ceiling: 500
Heat Index: -1°   Visibility: 3mi
Dew Point: -2°   Wind: 0mph
Humidity: 93%   Direction: NA
Pressure: 29.84"   Gusts: NA
Location:  47.3121°N, 93.3823°W
Report Text: KGPZ 290615Z AUTO 00000KT 3SM OVC005 M01/M02 A2984 RMK AO1
Loading
Personal Weather Stations






























Interactive Weather Map New forecast layout! Learn more

10-Day Weather Forecast

Advertisements
Track Severe Weather on mobile